Terminal Aerodrome Forecast
Issued by NWS

Home | Current Version | Previous Version | Text Only | Print | Product List | Glossary On
Versions: 1 2 3 4 5 6 7 8 9 10 11 12 13 14 15 16 17 18 19 20 21 22 23
000
FTUS46 KLOX 291121
TAFSBP
TAF
KSBP 291121Z 2912/3012 VRB03KT P6SM OVC003
     FM291300 VRB03KT 1SM BR OVC002
     FM291500 VRB03KT 3SM BR BKN005
     FM291600 VRB03KT P6SM SKC
     FM292000 29010KT P6SM SKC
     FM300400 VRB03KT P6SM SKC
     FM300700 VRB03KT P6SM BKN005
     FM301000 VRB03KT 1/2SM FG VV001=

USA.gov is the U.S. government's official web portal to all federal, state and local government web resources and services.